createdAt,value
2023-11-23T00:00:16.014Z,6.40
2023-11-23T00:03:03.341Z,8.70
2023-11-23T00:05:30.268Z,7.00
2023-11-23T00:07:57.167Z,6.80
2023-11-23T00:10:24.537Z,8.00
2023-11-23T00:12:51.469Z,8.90
2023-11-23T00:15:18.454Z,6.90
2023-11-23T00:20:12.534Z,6.60
2023-11-23T00:25:12.305Z,7.00
2023-11-23T00:27:39.186Z,8.50
2023-11-23T00:30:07.632Z,7.70
2023-11-23T00:32:34.748Z,8.30
2023-11-23T00:37:29.475Z,7.40
2023-11-23T00:39:56.427Z,6.40
2023-11-23T00:42:25.198Z,7.50
2023-11-23T00:44:52.193Z,7.20
2023-11-23T00:47:20.179Z,8.10
2023-11-23T00:49:47.113Z,6.90
2023-11-23T00:54:41.039Z,6.90
2023-11-23T01:02:04.277Z,5.30
2023-11-23T01:04:31.680Z,7.40
2023-11-23T01:09:26.880Z,7.30
2023-11-23T01:11:55.220Z,7.40
2023-11-23T01:14:22.111Z,7.20
2023-11-23T01:16:49.064Z,8.50
2023-11-23T01:19:16.155Z,6.60
2023-11-23T01:21:44.389Z,8.60
2023-11-23T01:24:12.459Z,7.60
2023-11-23T01:26:39.413Z,7.20
2023-11-23T01:31:33.260Z,7.00
2023-11-23T01:34:00.891Z,6.20
2023-11-23T01:36:28.059Z,8.30
2023-11-23T01:38:55.091Z,7.70
2023-11-23T01:43:49.782Z,5.20
2023-11-23T01:46:16.826Z,7.40
2023-11-23T01:48:45.124Z,9.40
2023-11-23T01:51:14.780Z,7.20
2023-11-23T01:53:42.622Z,7.90
2023-11-23T01:56:12.372Z,8.60
2023-11-23T01:58:39.328Z,9.30
2023-11-23T02:03:34.507Z,8.80
2023-11-23T02:06:01.599Z,9.80
2023-11-23T02:08:28.678Z,7.70
2023-11-23T02:10:57.202Z,9.90
2023-11-23T02:13:24.770Z,8.40
2023-11-23T02:15:51.673Z,8.70
2023-11-23T02:18:18.748Z,8.10
2023-11-23T02:20:47.198Z,9.20
2023-11-23T02:23:14.123Z,8.80
2023-11-23T02:25:41.119Z,9.60
2023-11-23T02:28:08.860Z,10.80
2023-11-23T02:30:35.752Z,12.10
2023-11-23T02:33:04.266Z,10.60
2023-11-23T02:35:31.265Z,10.70
2023-11-23T02:37:58.147Z,9.50
2023-11-23T02:40:25.072Z,9.60
2023-11-23T02:42:52.055Z,9.70
2023-11-23T02:45:19.061Z,8.80
2023-11-23T02:47:46.190Z,8.80
2023-11-23T02:50:13.321Z,9.40
2023-11-23T02:52:40.143Z,7.80
2023-11-23T02:55:08.668Z,8.60
2023-11-23T02:57:35.641Z,8.10
2023-11-23T03:00:03.456Z,8.70
2023-11-23T03:02:32.460Z,8.70
2023-11-23T03:04:59.539Z,8.30
2023-11-23T03:09:53.140Z,9.00
2023-11-23T03:12:20.121Z,8.50
2023-11-23T03:19:40.803Z,8.80
2023-11-23T03:24:34.864Z,8.80
2023-11-23T03:27:01.873Z,8.40
2023-11-23T03:31:55.914Z,5.10
2023-11-23T03:34:22.816Z,6.30
2023-11-23T03:39:18.833Z,6.60
2023-11-23T03:41:46.356Z,8.50
2023-11-23T03:44:13.307Z,13.40
2023-11-23T03:46:41.211Z,8.40
2023-11-23T03:49:08.503Z,8.00
2023-11-23T03:51:36.933Z,8.30
2023-11-23T03:54:04.331Z,8.30
2023-11-23T03:56:31.446Z,9.70
2023-11-23T03:58:58.483Z,9.00
2023-11-23T04:01:25.509Z,6.90
2023-11-23T04:06:19.462Z,7.90
2023-11-23T04:11:15.296Z,7.60
2023-11-23T04:13:42.324Z,9.80
2023-11-23T04:18:36.733Z,9.40
2023-11-23T04:21:04.789Z,7.70
2023-11-23T04:24:13.087Z,8.00
2023-11-23T04:26:44.612Z,7.40
2023-11-23T04:33:00.687Z,8.90
2023-11-23T04:35:29.338Z,9.40
2023-11-23T04:37:58.296Z,10.10
2023-11-23T04:40:26.886Z,8.80
2023-11-23T04:42:55.315Z,10.00
2023-11-23T04:45:23.793Z,9.50
2023-11-23T04:47:52.203Z,9.10
2023-11-23T04:50:22.517Z,10.90
2023-11-23T04:52:51.167Z,9.20
2023-11-23T04:55:21.231Z,9.90
2023-11-23T04:57:49.796Z,10.70
2023-11-23T05:00:26.199Z,10.70
2023-11-23T05:02:58.508Z,9.90
2023-11-23T05:05:27.734Z,9.60
2023-11-23T05:07:56.150Z,10.50
2023-11-23T05:10:24.740Z,11.40
2023-11-23T05:12:53.382Z,12.00
2023-11-23T05:15:22.721Z,12.50
2023-11-23T05:17:51.232Z,10.70
2023-11-23T05:20:20.140Z,11.50
2023-11-23T05:22:48.446Z,12.70
2023-11-23T05:25:16.701Z,13.50
2023-11-23T05:27:44.879Z,11.90
2023-11-23T05:30:13.748Z,12.30
2023-11-23T05:32:42.198Z,12.70
2023-11-23T05:35:10.544Z,14.00
2023-11-23T05:37:38.873Z,13.20
2023-11-23T05:40:10.687Z,12.80
2023-11-23T05:42:50.742Z,12.30
2023-11-23T05:45:26.542Z,10.60
2023-11-23T05:47:55.680Z,12.20
2023-11-23T05:50:23.914Z,10.80
2023-11-23T05:52:52.261Z,13.80
2023-11-23T05:55:20.366Z,11.60
2023-11-23T05:57:48.634Z,10.30
2023-11-23T06:00:17.565Z,11.80
2023-11-23T06:02:45.964Z,12.80
2023-11-23T06:05:16.517Z,11.60
2023-11-23T06:07:44.993Z,12.30
2023-11-23T06:10:13.481Z,12.60
2023-11-23T06:12:41.997Z,12.20
2023-11-23T06:15:10.511Z,12.10
2023-11-23T06:17:38.879Z,11.90
2023-11-23T06:20:09.855Z,12.40
2023-11-23T06:22:38.038Z,12.20
2023-11-23T06:25:06.399Z,12.00
2023-11-23T06:27:35.537Z,13.50
2023-11-23T06:30:05.547Z,11.90
2023-11-23T06:32:33.865Z,11.90
2023-11-23T06:35:02.199Z,12.70
2023-11-23T06:37:30.449Z,11.60
2023-11-23T06:39:58.873Z,11.60
2023-11-23T06:42:27.229Z,13.00
2023-11-23T06:44:55.589Z,12.80
2023-11-23T06:47:24.024Z,11.30
2023-11-23T06:49:52.223Z,12.60
2023-11-23T06:52:21.887Z,11.80
2023-11-23T06:54:50.186Z,12.60
2023-11-23T06:57:18.977Z,12.50
2023-11-23T06:59:47.104Z,16.40
2023-11-23T07:02:15.365Z,11.70
2023-11-23T07:04:44.016Z,12.80
2023-11-23T07:07:12.378Z,11.50
2023-11-23T07:09:41.641Z,12.00
2023-11-23T07:12:11.337Z,12.70
2023-11-23T07:14:42.438Z,13.70
2023-11-23T07:17:10.732Z,11.70
2023-11-23T07:19:39.188Z,11.50
2023-11-23T07:22:07.455Z,13.60
2023-11-23T07:24:37.246Z,13.50
2023-11-23T07:27:05.451Z,13.20
2023-11-23T07:29:33.615Z,12.80
2023-11-23T07:32:01.935Z,11.90
2023-11-23T07:34:30.295Z,11.80
2023-11-23T07:36:58.456Z,13.20
2023-11-23T07:39:27.014Z,13.80
2023-11-23T07:41:55.274Z,14.00
2023-11-23T07:44:23.910Z,14.60
2023-11-23T07:46:52.187Z,14.10
2023-11-23T07:49:20.550Z,15.20
2023-11-23T07:51:48.745Z,14.80
2023-11-23T07:54:17.123Z,15.60
2023-11-23T07:56:45.413Z,14.00
2023-11-23T07:59:13.576Z,14.90
2023-11-23T08:01:41.851Z,14.00
2023-11-23T08:04:12.971Z,15.10
2023-11-23T08:06:41.545Z,14.10
2023-11-23T08:09:16.036Z,14.50
2023-11-23T08:11:44.330Z,13.60
2023-11-23T08:14:14.371Z,13.00
2023-11-23T08:16:42.728Z,12.60
2023-11-23T08:22:48.688Z,13.50
2023-11-23T08:25:17.052Z,12.70
2023-11-23T08:27:46.009Z,14.40
2023-11-23T08:30:16.663Z,12.80
2023-11-23T08:32:45.250Z,13.70
2023-11-23T08:35:13.766Z,11.60
2023-11-23T08:37:42.136Z,16.10
2023-11-23T08:40:10.978Z,11.00
2023-11-23T08:42:39.256Z,12.70
2023-11-23T08:45:08.651Z,11.80
2023-11-23T08:47:36.909Z,12.90
2023-11-23T08:50:07.244Z,14.00
2023-11-23T08:52:35.431Z,14.70
2023-11-23T08:55:04.785Z,14.30
2023-11-23T08:57:33.260Z,13.80
2023-11-23T09:00:02.540Z,13.20
2023-11-23T09:02:31.854Z,15.20
2023-11-23T09:05:00.739Z,14.40
2023-11-23T09:26:48.769Z,15.30
2023-11-23T09:29:16.908Z,14.50
2023-11-23T09:31:45.075Z,12.60
2023-11-23T09:34:13.450Z,14.50
2023-11-23T09:36:41.886Z,14.70
2023-11-23T09:39:11.021Z,14.00
2023-11-23T09:41:45.179Z,14.80
2023-11-23T09:44:17.233Z,15.80
2023-11-23T09:46:46.888Z,16.60
2023-11-23T09:49:15.259Z,15.60
2023-11-23T09:51:45.754Z,16.10
2023-11-23T09:54:23.004Z,14.20
2023-11-23T09:56:51.592Z,14.90
2023-11-23T09:59:20.064Z,15.10
2023-11-23T10:01:52.932Z,14.80
2023-11-23T10:08:04.030Z,15.60
2023-11-23T10:10:32.376Z,16.80
2023-11-23T10:13:00.976Z,15.70
2023-11-23T10:15:29.529Z,17.10
2023-11-23T10:17:58.064Z,16.70
2023-11-23T10:20:27.839Z,14.90
2023-11-23T10:22:57.303Z,14.50
2023-11-23T10:25:37.021Z,13.50
2023-11-23T10:28:05.689Z,15.60
2023-11-23T10:30:37.605Z,14.00
2023-11-23T10:33:07.145Z,16.00
2023-11-23T10:35:42.460Z,16.50
2023-11-23T10:38:13.188Z,17.00
2023-11-23T10:40:41.987Z,15.00
2023-11-23T10:43:13.581Z,16.20
2023-11-23T10:45:45.684Z,14.30
2023-11-23T10:48:18.406Z,16.30
2023-11-23T10:50:48.817Z,15.30
2023-11-23T10:53:17.547Z,14.60
2023-11-23T10:55:50.898Z,15.00
2023-11-23T10:58:20.450Z,16.50
2023-11-23T11:00:50.264Z,14.80
2023-11-23T11:03:20.320Z,14.10
2023-11-23T11:05:52.262Z,15.50
2023-11-23T11:08:22.438Z,16.10
2023-11-23T11:10:52.712Z,16.40
2023-11-23T11:13:28.168Z,15.50
2023-11-23T11:16:04.918Z,17.60
2023-11-23T11:18:40.031Z,18.60
2023-11-23T11:21:13.942Z,15.00
2023-11-23T11:23:47.774Z,16.80
2023-11-23T11:26:19.952Z,16.20
2023-11-23T11:28:59.749Z,15.40
2023-11-23T11:31:37.396Z,14.40
2023-11-23T11:34:23.492Z,15.70
2023-11-23T11:37:04.994Z,16.20
2023-11-23T11:39:38.813Z,15.60
2023-11-23T11:42:15.574Z,19.10
2023-11-23T11:47:13.776Z,17.10
2023-11-23T11:49:42.436Z,16.30
2023-11-23T11:52:13.841Z,18.40
2023-11-23T11:54:42.378Z,17.50
2023-11-23T11:57:10.764Z,18.50
2023-11-23T11:59:39.730Z,18.10
2023-11-23T12:02:08.072Z,16.80
2023-11-23T12:04:37.145Z,17.90
2023-11-23T12:07:13.931Z,18.10
2023-11-23T12:09:46.633Z,17.70
2023-11-23T12:12:17.033Z,17.70
2023-11-23T12:14:46.008Z,18.00
2023-11-23T12:17:14.937Z,17.10
2023-11-23T12:19:57.273Z,18.60
2023-11-23T12:22:28.019Z,17.10
2023-11-23T12:24:57.727Z,19.30
2023-11-23T12:27:26.897Z,19.90
2023-11-23T12:29:55.259Z,20.40
2023-11-23T12:32:24.006Z,20.40
2023-11-23T12:34:52.325Z,17.40
2023-11-23T12:37:20.793Z,21.50
2023-11-23T12:39:55.656Z,20.70
2023-11-23T12:42:24.305Z,18.90
2023-11-23T12:44:52.738Z,16.90
2023-11-23T12:47:26.169Z,19.30
2023-11-23T12:49:55.878Z,18.70
2023-11-23T12:52:24.077Z,19.30
2023-11-23T12:54:52.394Z,18.10
2023-11-23T12:57:20.941Z,16.50
2023-11-23T12:59:49.281Z,19.70
2023-11-23T13:02:19.087Z,19.90
2023-11-23T13:04:47.430Z,21.40
2023-11-23T13:07:15.699Z,23.20
2023-11-23T13:09:44.044Z,19.10
2023-11-23T13:12:12.729Z,18.20
2023-11-23T13:14:42.847Z,19.60
2023-11-23T13:17:11.232Z,18.90
2023-11-23T13:19:43.547Z,19.10
2023-11-23T13:22:13.763Z,19.60
2023-11-23T13:24:42.940Z,23.80
2023-11-23T13:27:13.612Z,19.00
2023-11-23T13:29:42.387Z,20.30
2023-11-23T13:32:11.835Z,19.30
2023-11-23T13:34:40.242Z,19.20
2023-11-23T13:37:10.358Z,19.40
2023-11-23T13:39:39.899Z,17.00
2023-11-23T13:42:11.530Z,18.00
2023-11-23T13:44:39.714Z,18.40
2023-11-23T13:47:10.192Z,23.30
2023-11-23T13:49:39.431Z,19.70
2023-11-23T13:52:11.531Z,20.60
2023-11-23T13:54:40.306Z,20.90
2023-11-23T13:57:08.799Z,22.60
2023-11-23T13:59:37.368Z,20.70
2023-11-23T14:02:07.147Z,21.40
2023-11-23T14:04:36.782Z,19.50
2023-11-23T14:07:06.833Z,18.70
2023-11-23T14:09:35.391Z,19.60
2023-11-23T14:12:05.011Z,21.50
2023-11-23T14:14:33.399Z,19.30
2023-11-23T14:17:01.695Z,22.60
2023-11-23T14:19:30.499Z,20.90
2023-11-23T14:22:01.894Z,22.60
2023-11-23T14:24:31.356Z,24.40
2023-11-23T14:26:59.767Z,22.80
2023-11-23T14:29:28.057Z,22.20
2023-11-23T14:31:56.377Z,24.10
2023-11-23T14:34:25.169Z,18.80
2023-11-23T14:36:56.682Z,20.80
2023-11-23T14:39:28.957Z,23.40
2023-11-23T14:41:58.007Z,22.40
2023-11-23T14:44:26.469Z,26.10
2023-11-23T14:46:54.985Z,25.40
2023-11-23T14:49:24.137Z,27.40
2023-11-23T14:51:54.610Z,22.60
2023-11-23T14:54:32.083Z,23.60
2023-11-23T14:57:09.203Z,23.90
2023-11-23T14:59:37.863Z,23.70
2023-11-23T15:02:08.300Z,22.20
2023-11-23T15:04:37.183Z,20.40
2023-11-23T15:07:06.839Z,20.70
2023-11-23T15:09:43.259Z,22.00
2023-11-23T15:12:15.843Z,22.70
2023-11-23T15:14:44.387Z,25.60
2023-11-23T15:17:13.521Z,25.70
2023-11-23T15:19:42.147Z,23.00
2023-11-23T15:22:11.448Z,24.20
2023-11-23T15:24:45.021Z,24.10
2023-11-23T15:27:13.308Z,21.00
2023-11-23T15:29:42.001Z,21.80
2023-11-23T15:32:18.901Z,21.60
2023-11-23T15:37:19.750Z,20.90
2023-11-23T15:42:25.255Z,22.70
2023-11-23T15:44:59.974Z,24.90
2023-11-23T15:47:31.083Z,24.00
2023-11-23T15:50:11.505Z,23.90
2023-11-23T15:52:42.153Z,24.80
2023-11-23T15:55:14.538Z,25.10
2023-11-23T15:57:58.919Z,27.10
2023-11-23T16:00:32.492Z,25.60
2023-11-23T16:03:01.037Z,24.00
2023-11-23T16:05:31.987Z,24.20
2023-11-23T16:08:00.526Z,25.00
2023-11-23T16:10:31.289Z,23.90
2023-11-23T16:13:02.541Z,22.00
2023-11-23T16:15:38.167Z,24.20
2023-11-23T16:18:07.546Z,25.20
2023-11-23T16:20:35.946Z,26.20
2023-11-23T16:23:04.134Z,26.20
2023-11-23T16:25:41.612Z,24.60
2023-11-23T16:28:14.760Z,25.80
2023-11-23T16:30:42.930Z,23.40
2023-11-23T16:33:11.802Z,24.40
2023-11-23T16:35:40.840Z,24.70
2023-11-23T16:38:10.379Z,25.10
2023-11-23T16:40:38.674Z,23.50
2023-11-23T16:43:07.055Z,27.10
2023-11-23T16:45:36.900Z,28.60
2023-11-23T16:48:07.558Z,26.50
2023-11-23T16:50:36.111Z,27.80
2023-11-23T16:53:04.929Z,26.50
2023-11-23T16:55:33.569Z,23.80
2023-11-23T16:58:01.797Z,21.30
2023-11-23T17:00:30.040Z,22.00
2023-11-23T17:02:58.604Z,23.10
2023-11-23T17:05:26.971Z,25.40
2023-11-23T17:07:55.186Z,24.80
2023-11-23T17:10:23.758Z,25.00
2023-11-23T17:12:52.056Z,24.80
2023-11-23T17:15:22.885Z,27.10
2023-11-23T17:17:52.375Z,25.70
2023-11-23T17:20:27.405Z,27.00
2023-11-23T17:22:57.896Z,22.10
2023-11-23T17:25:27.005Z,28.50
2023-11-23T17:27:57.005Z,24.90
2023-11-23T17:30:27.879Z,26.60
2023-11-23T17:32:56.791Z,28.20
2023-11-23T17:35:26.351Z,28.70
2023-11-23T17:37:55.023Z,29.30
2023-11-23T17:40:23.599Z,28.90
2023-11-23T17:42:52.645Z,28.70
2023-11-23T17:45:21.026Z,30.40
2023-11-23T17:47:50.928Z,31.40
2023-11-23T17:50:19.254Z,27.90
2023-11-23T17:52:48.313Z,27.00
2023-11-23T17:55:16.784Z,23.90
2023-11-23T17:57:45.257Z,24.30
2023-11-23T18:00:14.466Z,22.80
2023-11-23T18:02:44.346Z,32.40
2023-11-23T18:05:13.516Z,30.40
2023-11-23T18:07:43.017Z,32.10
2023-11-23T18:10:16.066Z,33.90
2023-11-23T18:12:45.973Z,34.70
2023-11-23T18:15:16.002Z,33.60
2023-11-23T18:17:44.750Z,31.00
2023-11-23T18:20:15.067Z,28.60
2023-11-23T18:22:43.599Z,28.20
2023-11-23T18:25:12.004Z,29.60
2023-11-23T18:27:41.923Z,31.00
2023-11-23T18:30:13.418Z,32.40
2023-11-23T18:32:42.539Z,29.50
2023-11-23T18:35:17.586Z,25.00
2023-11-23T18:37:45.921Z,30.90
2023-11-23T18:40:14.679Z,30.70
2023-11-23T18:42:45.757Z,30.00
2023-11-23T18:45:14.351Z,32.60
2023-11-23T18:47:43.056Z,31.40
2023-11-23T18:50:12.753Z,28.00
2023-11-23T18:52:42.194Z,32.10
2023-11-23T18:55:11.719Z,26.60
2023-11-23T18:57:40.442Z,28.60
2023-11-23T19:00:10.159Z,31.00
2023-11-23T19:02:39.486Z,30.70
2023-11-23T19:05:08.713Z,29.90
2023-11-23T19:07:36.990Z,32.80
2023-11-23T19:10:05.536Z,30.10
2023-11-23T19:12:33.798Z,37.60
2023-11-23T19:15:02.520Z,35.20
2023-11-23T19:17:31.228Z,29.30
2023-11-23T19:20:00.713Z,28.00
2023-11-23T19:22:29.599Z,30.70
2023-11-23T19:24:58.218Z,30.00
2023-11-23T19:27:26.880Z,30.50
2023-11-23T19:29:55.384Z,29.10
2023-11-23T19:32:24.824Z,23.30
2023-11-23T19:34:57.490Z,26.40
2023-11-23T19:37:26.433Z,26.40
2023-11-23T19:39:55.366Z,28.20
2023-11-23T19:42:24.045Z,23.30
2023-11-23T19:44:54.975Z,21.50
2023-11-23T19:47:23.718Z,29.40
2023-11-23T19:49:52.437Z,27.60
2023-11-23T19:52:30.628Z,28.60
2023-11-23T19:55:00.777Z,28.70
2023-11-23T19:57:29.931Z,31.50
2023-11-23T19:59:58.388Z,29.50
2023-11-23T20:02:27.384Z,26.00
2023-11-23T20:04:57.559Z,25.20
2023-11-23T20:07:26.066Z,27.40
2023-11-23T20:10:01.845Z,29.30
2023-11-23T20:12:30.414Z,27.20
2023-11-23T20:14:58.784Z,25.80
2023-11-23T20:17:27.207Z,26.00
2023-11-23T20:19:55.975Z,30.80
2023-11-23T20:22:24.296Z,31.20
2023-11-23T20:24:52.874Z,28.20
2023-11-23T20:27:21.424Z,28.70
2023-11-23T20:29:49.836Z,24.50
2023-11-23T20:32:18.209Z,25.70
2023-11-23T20:34:48.381Z,26.80
2023-11-23T20:37:16.958Z,23.90
2023-11-23T20:39:45.370Z,23.40
2023-11-23T20:42:13.776Z,19.90
2023-11-23T20:44:43.109Z,23.80
2023-11-23T20:47:11.448Z,18.80
2023-11-23T20:49:40.738Z,18.80
2023-11-23T20:52:09.652Z,19.50
2023-11-23T20:54:38.173Z,19.90
2023-11-23T20:57:07.144Z,19.50
2023-11-23T20:59:35.644Z,18.90
2023-11-23T21:02:04.468Z,16.90
2023-11-23T21:04:34.952Z,16.10
2023-11-23T21:26:55.103Z,17.00
2023-11-23T21:29:23.248Z,17.20
2023-11-23T21:31:51.380Z,16.00
2023-11-23T21:34:19.612Z,22.60
2023-11-23T21:36:48.045Z,17.50
2023-11-23T21:39:17.367Z,17.10
2023-11-23T21:41:47.898Z,16.30
2023-11-23T21:44:18.329Z,15.50
2023-11-23T21:46:46.522Z,15.80
2023-11-23T21:49:14.673Z,23.50
2023-11-23T21:51:45.357Z,25.60
2023-11-23T21:54:13.640Z,20.10
2023-11-23T21:56:42.046Z,19.50
2023-11-23T21:59:10.504Z,16.70
2023-11-23T22:01:38.884Z,18.40
2023-11-23T22:04:07.317Z,17.60
2023-11-23T22:06:35.782Z,15.80
2023-11-23T22:09:04.394Z,12.90
2023-11-23T22:11:32.604Z,13.60
2023-11-23T22:14:01.080Z,13.40
2023-11-23T22:16:29.658Z,15.00
2023-11-23T22:18:58.228Z,14.50
2023-11-23T22:21:26.954Z,14.10
2023-11-23T22:23:55.437Z,13.90
2023-11-23T22:26:24.782Z,14.70
2023-11-23T22:28:53.477Z,14.20
2023-11-23T22:31:23.169Z,14.70
2023-11-23T22:33:51.802Z,12.90
2023-11-23T22:36:20.374Z,13.10
2023-11-23T22:38:51.840Z,12.40
2023-11-23T22:41:20.410Z,14.60
2023-11-23T22:43:49.410Z,13.40
2023-11-23T22:46:17.854Z,11.30
2023-11-23T22:48:46.062Z,11.10
2023-11-23T22:51:15.814Z,13.60
2023-11-23T22:53:44.733Z,12.90
2023-11-23T22:56:14.292Z,14.60
2023-11-23T22:58:45.542Z,13.00
2023-11-23T23:01:14.982Z,15.60
2023-11-23T23:03:45.010Z,15.70
2023-11-23T23:06:13.982Z,14.90
2023-11-23T23:08:42.287Z,15.90
2023-11-23T23:11:11.612Z,14.40
2023-11-23T23:13:40.512Z,12.10
2023-11-23T23:16:08.738Z,10.70
2023-11-23T23:18:37.129Z,13.90
2023-11-23T23:21:06.128Z,15.60
2023-11-23T23:23:34.373Z,15.00
2023-11-23T23:26:03.007Z,15.70
2023-11-23T23:28:32.667Z,17.00
2023-11-23T23:31:01.767Z,15.30
2023-11-23T23:33:30.713Z,13.50
2023-11-23T23:35:59.308Z,14.90
2023-11-23T23:38:27.692Z,14.70
2023-11-23T23:40:55.868Z,14.10
2023-11-23T23:43:24.295Z,12.80
2023-11-23T23:45:52.629Z,11.60
2023-11-23T23:48:20.892Z,11.40
2023-11-23T23:50:49.321Z,12.50
2023-11-23T23:53:17.992Z,12.10
2023-11-23T23:55:47.312Z,11.10
2023-11-23T23:58:16.520Z,13.60
